createdAt,value
2018-11-25T00:01:29.918Z,20.75
2018-11-25T00:03:56.039Z,20.75
2018-11-25T00:06:22.010Z,20.77
2018-11-25T00:08:47.964Z,20.76
2018-11-25T00:11:13.941Z,20.79
2018-11-25T00:13:39.941Z,20.78
2018-11-25T00:16:05.895Z,20.79
2018-11-25T00:18:31.864Z,20.78
2018-11-25T00:20:57.909Z,20.79
2018-11-25T00:23:23.859Z,20.77
2018-11-25T00:25:49.808Z,20.76
2018-11-25T00:28:15.783Z,20.76
2018-11-25T00:30:41.737Z,20.76
2018-11-25T00:33:07.713Z,20.74
2018-11-25T00:35:33.686Z,20.72
2018-11-25T00:37:59.630Z,20.74
2018-11-25T00:40:25.615Z,20.72
2018-11-25T00:42:51.597Z,20.71
2018-11-25T00:45:17.562Z,20.68
2018-11-25T00:47:43.520Z,20.68
2018-11-25T00:50:09.776Z,20.68
2018-11-25T00:52:35.727Z,20.68
2018-11-25T00:55:01.671Z,20.69
2018-11-25T00:57:27.641Z,20.70
2018-11-25T00:59:53.655Z,20.69
2018-11-25T01:02:19.610Z,20.71
2018-11-25T01:04:45.558Z,20.72
2018-11-25T01:07:11.509Z,20.71
2018-11-25T01:09:37.462Z,20.70
2018-11-25T01:12:03.443Z,20.71
2018-11-25T01:14:29.410Z,20.69
2018-11-25T01:16:55.349Z,20.68
2018-11-25T01:19:21.309Z,20.67
2018-11-25T01:21:47.277Z,20.68
2018-11-25T01:24:13.232Z,20.67
2018-11-25T01:26:39.180Z,20.67
2018-11-25T01:29:05.134Z,20.65
2018-11-25T01:31:31.097Z,20.64
2018-11-25T01:33:57.048Z,20.66
2018-11-25T01:36:22.995Z,20.64
2018-11-25T01:38:48.948Z,20.65
2018-11-25T01:41:15.104Z,20.63
2018-11-25T01:43:41.081Z,20.63
2018-11-25T01:46:07.026Z,20.65
2018-11-25T01:48:32.981Z,20.64
2018-11-25T01:50:58.987Z,20.66
2018-11-25T01:53:24.988Z,20.64
2018-11-25T01:55:50.957Z,20.64
2018-11-25T01:58:16.905Z,20.65
2018-11-25T02:00:42.880Z,20.64
2018-11-25T02:03:08.825Z,20.63
2018-11-25T02:05:34.779Z,20.64
2018-11-25T02:08:00.797Z,20.63
2018-11-25T02:10:26.765Z,20.61
2018-11-25T02:12:52.741Z,20.63
2018-11-25T02:15:18.778Z,20.63
2018-11-25T02:17:44.747Z,20.65
2018-11-25T02:20:10.688Z,20.64
2018-11-25T02:22:36.661Z,20.64
2018-11-25T02:25:02.614Z,20.63
2018-11-25T02:27:28.576Z,20.65
2018-11-25T02:29:54.516Z,20.67
2018-11-25T02:32:20.565Z,20.67
2018-11-25T02:34:46.534Z,20.70
2018-11-25T02:37:12.511Z,20.69
2018-11-25T02:39:38.470Z,20.69
2018-11-25T02:42:04.439Z,20.67
2018-11-25T02:44:30.377Z,20.66
2018-11-25T02:46:56.328Z,20.66
2018-11-25T02:49:22.281Z,20.67
2018-11-25T02:51:48.241Z,20.65
2018-11-25T02:54:14.308Z,20.64
2018-11-25T02:56:40.481Z,20.63
2018-11-25T02:59:06.425Z,20.61
2018-11-25T03:01:32.419Z,20.58
2018-11-25T03:03:58.404Z,20.59
2018-11-25T03:06:24.461Z,20.58
2018-11-25T03:08:50.494Z,20.57
2018-11-25T03:11:16.441Z,20.56
2018-11-25T03:13:42.391Z,20.54
2018-11-25T03:16:08.340Z,20.55
2018-11-25T03:18:34.284Z,20.56
2018-11-25T03:21:00.385Z,20.55
2018-11-25T03:23:26.328Z,20.56
2018-11-25T03:25:52.281Z,20.55
2018-11-25T03:28:18.221Z,20.54
2018-11-25T03:30:44.241Z,20.54
2018-11-25T03:33:10.224Z,20.53
2018-11-25T03:35:36.173Z,20.53
2018-11-25T03:38:02.145Z,20.52
2018-11-25T03:40:28.097Z,20.52
2018-11-25T03:42:54.081Z,20.51
2018-11-25T03:45:20.023Z,20.51
2018-11-25T03:47:46.009Z,20.51
2018-11-25T03:50:11.962Z,20.49
2018-11-25T03:52:37.901Z,20.48
2018-11-25T03:55:03.847Z,20.48
2018-11-25T03:57:29.789Z,20.47
2018-11-25T03:59:55.761Z,20.47
2018-11-25T04:02:21.714Z,20.46
2018-11-25T04:04:47.728Z,20.46
2018-11-25T04:07:13.676Z,20.47
2018-11-25T04:09:39.680Z,20.45
2018-11-25T04:12:05.643Z,20.46
2018-11-25T04:14:31.613Z,20.47
2018-11-25T04:16:57.568Z,20.47
2018-11-25T04:19:23.518Z,20.47
2018-11-25T04:21:49.528Z,20.47
2018-11-25T04:24:15.472Z,20.45
2018-11-25T04:26:41.420Z,20.45
2018-11-25T04:29:07.400Z,20.43
2018-11-25T04:31:33.337Z,20.43
2018-11-25T04:33:59.287Z,20.42
2018-11-25T04:36:25.250Z,20.43
2018-11-25T04:38:51.209Z,20.41
2018-11-25T04:41:17.176Z,20.40
2018-11-25T04:43:43.134Z,20.40
2018-11-25T04:46:09.096Z,20.40
2018-11-25T04:48:35.039Z,20.37
2018-11-25T04:51:01.510Z,20.37
2018-11-25T04:53:27.458Z,20.38
2018-11-25T04:55:53.567Z,20.38
2018-11-25T04:58:19.477Z,20.39
2018-11-25T05:00:45.422Z,20.38
2018-11-25T05:03:11.379Z,20.40
2018-11-25T05:05:37.337Z,20.39
2018-11-25T05:08:03.320Z,20.40
2018-11-25T05:10:29.271Z,20.39
2018-11-25T05:12:55.268Z,20.38
2018-11-25T05:15:21.262Z,20.38
2018-11-25T05:17:47.211Z,20.37
2018-11-25T05:20:13.170Z,20.33
2018-11-25T05:22:39.129Z,20.32
2018-11-25T05:25:05.092Z,20.31
2018-11-25T05:27:31.048Z,20.30
2018-11-25T05:29:56.995Z,20.31
2018-11-25T05:32:22.957Z,20.33
2018-11-25T05:34:48.901Z,20.34
2018-11-25T05:37:14.857Z,20.33
2018-11-25T05:39:40.812Z,20.36
2018-11-25T05:42:06.742Z,20.37
2018-11-25T05:44:32.768Z,20.38
2018-11-25T05:46:58.759Z,20.39
2018-11-25T05:49:24.700Z,20.41
2018-11-25T05:51:50.662Z,20.42
2018-11-25T05:54:16.621Z,20.43
2018-11-25T05:56:42.579Z,20.44
2018-11-25T05:59:08.530Z,20.45
2018-11-25T06:01:34.482Z,20.44
2018-11-25T06:04:00.425Z,20.45
2018-11-25T06:06:26.407Z,20.44
2018-11-25T06:08:52.344Z,20.45
2018-11-25T06:11:18.302Z,20.45
2018-11-25T06:13:44.280Z,20.46
2018-11-25T06:16:10.232Z,20.50
2018-11-25T06:18:36.208Z,20.47
2018-11-25T06:21:02.186Z,20.48
2018-11-25T06:23:28.200Z,20.50
2018-11-25T06:25:54.158Z,20.52
2018-11-25T06:28:20.162Z,20.54
2018-11-25T06:30:46.081Z,20.53
2018-11-25T06:33:12.028Z,20.57
2018-11-25T06:35:38.085Z,20.58
2018-11-25T06:38:04.020Z,20.57
2018-11-25T06:40:29.989Z,20.57
2018-11-25T06:42:55.961Z,20.57
2018-11-25T06:45:21.950Z,20.59
2018-11-25T06:47:47.929Z,20.58
2018-11-25T06:50:13.874Z,20.59
2018-11-25T06:52:39.847Z,20.59
2018-11-25T06:55:05.794Z,20.59
2018-11-25T06:57:31.789Z,20.59
2018-11-25T06:59:57.821Z,20.59
2018-11-25T07:02:23.791Z,20.58
2018-11-25T07:04:49.777Z,20.59
2018-11-25T07:07:15.810Z,20.60
2018-11-25T07:09:41.753Z,20.58
2018-11-25T07:12:07.705Z,20.59
2018-11-25T07:14:33.721Z,20.61
2018-11-25T07:16:59.673Z,20.63
2018-11-25T07:19:25.620Z,20.63
2018-11-25T07:21:51.681Z,20.64
2018-11-25T07:24:17.668Z,20.64
2018-11-25T07:26:43.619Z,20.63
2018-11-25T07:29:09.556Z,20.61
2018-11-25T07:31:35.581Z,20.62
2018-11-25T07:34:01.555Z,20.61
2018-11-25T07:36:27.501Z,20.62
2018-11-25T07:38:53.437Z,20.63
2018-11-25T07:41:19.400Z,20.64
2018-11-25T07:43:45.352Z,20.66
2018-11-25T07:46:11.326Z,20.65
2018-11-25T07:48:37.282Z,20.64
2018-11-25T07:51:03.238Z,20.64
2018-11-25T07:53:29.190Z,20.61
2018-11-25T07:55:55.135Z,20.62
2018-11-25T07:58:21.086Z,20.62
2018-11-25T08:00:47.052Z,20.62
2018-11-25T08:03:13.054Z,20.65
2018-11-25T08:05:39.001Z,20.66
2018-11-25T08:08:04.967Z,20.67
2018-11-25T08:10:30.921Z,20.66
2018-11-25T08:12:56.888Z,20.67
2018-11-25T08:15:22.847Z,20.65
2018-11-25T08:17:48.840Z,20.67
2018-11-25T08:20:14.793Z,20.66
2018-11-25T08:22:40.764Z,20.65
2018-11-25T08:25:06.817Z,20.65
2018-11-25T08:27:32.787Z,20.66
2018-11-25T08:29:58.765Z,20.68
2018-11-25T08:32:24.720Z,20.67
2018-11-25T08:34:50.681Z,20.67
2018-11-25T08:37:16.648Z,20.66
2018-11-25T08:39:42.622Z,20.66
2018-11-25T08:42:08.568Z,20.64
2018-11-25T08:44:34.560Z,20.65
2018-11-25T08:47:00.552Z,20.65
2018-11-25T08:49:26.580Z,20.68
2018-11-25T08:51:53.515Z,20.69
2018-11-25T08:54:19.566Z,20.71
2018-11-25T08:56:45.610Z,20.69
2018-11-25T08:59:11.744Z,20.68
2018-11-25T09:01:37.801Z,20.69
2018-11-25T09:04:03.788Z,20.69
2018-11-25T09:06:29.796Z,20.69
2018-11-25T09:08:55.753Z,20.67
2018-11-25T09:11:21.704Z,20.66
2018-11-25T09:13:47.664Z,20.66
2018-11-25T09:16:13.725Z,20.65
2018-11-25T09:18:39.677Z,20.67
2018-11-25T09:21:05.662Z,20.66
2018-11-25T09:23:31.632Z,20.66
2018-11-25T09:25:57.643Z,20.66
2018-11-25T09:28:23.667Z,20.64
2018-11-25T09:30:49.642Z,20.65
2018-11-25T09:33:15.598Z,20.66
2018-11-25T09:35:41.554Z,20.65
2018-11-25T09:38:07.522Z,20.67
2018-11-25T09:40:33.463Z,20.68
2018-11-25T09:42:59.433Z,20.70
2018-11-25T09:45:25.392Z,20.71
2018-11-25T09:47:51.361Z,20.72
2018-11-25T09:50:17.324Z,20.75
2018-11-25T09:52:43.289Z,20.74
2018-11-25T09:55:09.266Z,20.72
2018-11-25T09:57:35.244Z,20.72
2018-11-25T10:00:01.243Z,20.72
2018-11-25T10:02:27.212Z,20.71
2018-11-25T10:04:53.181Z,20.72
2018-11-25T10:07:19.138Z,20.71
2018-11-25T10:09:45.130Z,20.70
2018-11-25T10:12:11.083Z,20.69
2018-11-25T10:14:37.093Z,20.70
2018-11-25T10:17:03.062Z,20.70
2018-11-25T10:19:29.037Z,20.69
2018-11-25T10:21:55.009Z,20.71
2018-11-25T10:24:20.965Z,20.70
2018-11-25T10:26:46.908Z,20.69
2018-11-25T10:29:12.877Z,20.71
2018-11-25T10:31:38.840Z,20.74
2018-11-25T10:34:04.810Z,20.76
2018-11-25T10:36:30.770Z,20.76
2018-11-25T10:38:56.795Z,20.76
2018-11-25T10:41:22.817Z,20.74
2018-11-25T10:43:49.363Z,20.75
2018-11-25T10:46:15.369Z,20.74
2018-11-25T10:48:41.415Z,20.74
2018-11-25T10:51:07.431Z,20.72
2018-11-25T10:53:33.380Z,20.72
2018-11-25T10:55:59.354Z,20.73
2018-11-25T10:58:25.294Z,20.73
2018-11-25T11:00:51.280Z,20.73
2018-11-25T11:03:17.260Z,20.73
2018-11-25T11:05:43.288Z,20.74
2018-11-25T11:08:10.373Z,20.74
2018-11-25T11:10:36.367Z,20.75
2018-11-25T11:13:02.406Z,20.80
2018-11-25T11:15:28.427Z,20.84
2018-11-25T11:17:54.444Z,20.89
2018-11-25T11:20:20.491Z,20.90
2018-11-25T11:22:46.534Z,20.91
2018-11-25T11:25:12.577Z,20.91
2018-11-25T11:27:38.541Z,20.93
2018-11-25T11:30:04.848Z,20.94
2018-11-25T11:32:30.865Z,20.94
2018-11-25T11:34:56.820Z,20.93
2018-11-25T11:37:22.802Z,20.92
2018-11-25T11:39:49.641Z,20.93
2018-11-25T11:42:15.624Z,20.94
2018-11-25T11:44:41.577Z,20.93
2018-11-25T11:47:07.519Z,20.93
2018-11-25T11:49:33.481Z,20.92
2018-11-25T11:51:59.443Z,20.94
2018-11-25T11:54:25.393Z,20.91
2018-11-25T11:56:51.458Z,20.90
2018-11-25T11:59:17.477Z,20.93
2018-11-25T12:01:43.442Z,20.94
2018-11-25T12:04:09.402Z,20.96
2018-11-25T12:06:35.369Z,20.95
2018-11-25T12:09:01.339Z,20.95
2018-11-25T12:11:27.298Z,20.95
2018-11-25T12:13:53.250Z,20.92
2018-11-25T12:16:19.196Z,20.91
2018-11-25T12:18:45.194Z,20.88
2018-11-25T12:21:11.161Z,20.86
2018-11-25T12:23:37.138Z,20.84
2018-11-25T12:26:03.099Z,20.85
2018-11-25T12:28:29.107Z,20.83
2018-11-25T12:30:55.054Z,20.83
2018-11-25T12:33:21.052Z,20.80
2018-11-25T12:35:47.033Z,20.79
2018-11-25T12:38:13.161Z,20.79
2018-11-25T12:40:39.120Z,20.78
2018-11-25T12:43:05.104Z,20.76
2018-11-25T12:45:31.162Z,20.76
2018-11-25T12:47:57.136Z,20.78
2018-11-25T12:50:23.125Z,20.79
2018-11-25T12:52:49.185Z,20.80
2018-11-25T12:55:15.217Z,20.82
2018-11-25T12:57:41.251Z,20.82
2018-11-25T13:00:07.312Z,20.82
2018-11-25T13:02:33.978Z,20.80
2018-11-25T13:04:59.921Z,20.83
2018-11-25T13:07:25.895Z,20.81
2018-11-25T13:09:51.878Z,20.80
2018-11-25T13:12:17.936Z,20.80
2018-11-25T13:14:43.890Z,20.78
2018-11-25T13:17:09.866Z,20.78
2018-11-25T13:19:35.850Z,20.79
2018-11-25T13:22:01.810Z,20.78
2018-11-25T13:24:27.829Z,20.76
2018-11-25T13:26:53.782Z,20.75
2018-11-25T13:29:19.757Z,20.76
2018-11-25T13:31:45.720Z,20.76
2018-11-25T13:34:11.668Z,20.79
2018-11-25T13:36:37.626Z,20.79
2018-11-25T13:39:03.588Z,20.80
2018-11-25T13:41:29.549Z,20.84
2018-11-25T13:43:55.589Z,20.85
2018-11-25T13:46:21.570Z,20.86
2018-11-25T13:48:47.537Z,20.83
2018-11-25T13:51:13.506Z,20.86
2018-11-25T13:53:39.557Z,20.85
2018-11-25T13:56:05.533Z,20.84
2018-11-25T13:58:31.476Z,20.84
2018-11-25T14:00:57.497Z,20.84
2018-11-25T14:03:23.532Z,20.83
2018-11-25T14:05:53.238Z,20.81
2018-11-25T14:08:15.585Z,20.80
2018-11-25T14:10:41.548Z,20.80
2018-11-25T14:13:07.522Z,20.80
2018-11-25T14:15:33.465Z,20.81
2018-11-25T14:17:59.442Z,20.80
2018-11-25T14:20:25.408Z,20.79
2018-11-25T14:22:51.407Z,20.80
2018-11-25T14:25:17.376Z,20.83
2018-11-25T14:27:43.355Z,20.83
2018-11-25T14:30:13.394Z,20.85
2018-11-25T14:32:35.333Z,20.85
2018-11-25T14:35:01.285Z,20.85
2018-11-25T14:37:27.268Z,20.85
2018-11-25T14:39:53.238Z,20.85
2018-11-25T14:42:19.301Z,20.84
2018-11-25T14:44:45.261Z,20.81
2018-11-25T14:47:11.234Z,20.83
2018-11-25T14:49:37.179Z,20.83
2018-11-25T14:52:03.136Z,20.84
2018-11-25T14:54:29.209Z,20.84
2018-11-25T14:56:57.177Z,20.84
2018-11-25T14:59:23.128Z,20.87
2018-11-25T15:01:49.112Z,20.86
2018-11-25T15:04:15.203Z,20.87
2018-11-25T15:06:41.168Z,20.90
2018-11-25T15:09:07.141Z,20.92
2018-11-25T15:11:33.104Z,20.95
2018-11-25T15:13:59.053Z,20.97
2018-11-25T15:16:25.031Z,20.99
2018-11-25T15:18:51.267Z,21.02
2018-11-25T15:21:17.252Z,21.02
2018-11-25T15:23:43.446Z,21.04
2018-11-25T15:26:09.450Z,21.04
2018-11-25T15:28:35.425Z,21.06
2018-11-25T15:31:01.403Z,21.08
2018-11-25T15:33:27.413Z,21.06
2018-11-25T15:35:53.369Z,21.07
2018-11-25T15:38:19.331Z,21.09
2018-11-25T15:40:45.300Z,21.09
2018-11-25T15:43:11.276Z,21.10
2018-11-25T15:45:37.227Z,21.12
2018-11-25T15:48:03.284Z,21.11
2018-11-25T15:50:29.258Z,21.09
2018-11-25T15:52:55.242Z,21.10
2018-11-25T15:55:21.205Z,21.08
2018-11-25T15:57:47.214Z,21.11
2018-11-25T16:00:13.254Z,21.12
2018-11-25T16:02:39.328Z,21.10
2018-11-25T16:05:05.287Z,21.09
2018-11-25T16:07:31.318Z,21.09
2018-11-25T16:09:57.286Z,21.07
2018-11-25T16:12:23.242Z,21.04
2018-11-25T16:14:49.186Z,21.03
2018-11-25T16:17:15.171Z,21.01
2018-11-25T16:19:41.157Z,20.99
2018-11-25T16:22:07.190Z,20.98
2018-11-25T16:24:33.409Z,20.95
2018-11-25T16:26:59.367Z,20.94
2018-11-25T16:29:25.334Z,20.93
2018-11-25T16:31:51.287Z,20.91
2018-11-25T16:34:17.272Z,20.89
2018-11-25T16:36:44.865Z,20.89
2018-11-25T16:39:09.654Z,20.90
2018-11-25T16:41:35.630Z,20.89
2018-11-25T16:44:01.647Z,20.87
2018-11-25T16:46:27.646Z,20.90
2018-11-25T16:48:53.604Z,20.92
2018-11-25T16:51:19.642Z,20.94
2018-11-25T16:53:45.603Z,20.93
2018-11-25T16:56:11.581Z,20.93
2018-11-25T16:58:37.577Z,20.92
2018-11-25T17:01:09.724Z,20.89
2018-11-25T17:03:29.556Z,20.89
2018-11-25T17:05:55.560Z,20.87
2018-11-25T17:08:21.552Z,20.87
2018-11-25T17:10:47.536Z,20.87
2018-11-25T17:13:13.522Z,20.86
2018-11-25T17:15:39.481Z,20.86
2018-11-25T17:18:05.449Z,20.87
2018-11-25T17:20:31.431Z,20.85
2018-11-25T17:22:57.405Z,20.84
2018-11-25T17:25:23.360Z,20.84
2018-11-25T17:27:49.357Z,20.84
2018-11-25T17:30:15.332Z,20.85
2018-11-25T17:32:41.325Z,20.86
2018-11-25T17:35:07.329Z,20.88
2018-11-25T17:37:33.365Z,20.90
2018-11-25T17:39:59.354Z,20.91
2018-11-25T17:42:25.316Z,20.90
2018-11-25T17:44:51.458Z,20.90
2018-11-25T17:47:17.419Z,20.89
2018-11-25T17:49:43.368Z,20.87
2018-11-25T17:52:09.334Z,20.85
2018-11-25T17:54:35.328Z,20.86
2018-11-25T17:57:01.789Z,20.88
2018-11-25T17:59:27.865Z,20.86
2018-11-25T18:01:53.851Z,20.86
2018-11-25T18:04:19.816Z,20.86
2018-11-25T18:06:45.802Z,20.85
2018-11-25T18:09:11.785Z,20.86
2018-11-25T18:11:37.752Z,20.84
2018-11-25T18:14:03.707Z,20.83
2018-11-25T18:16:29.741Z,20.84
2018-11-25T18:18:55.688Z,20.83
2018-11-25T18:21:21.671Z,20.85
2018-11-25T18:23:47.671Z,20.87
2018-11-25T18:26:13.653Z,20.89
2018-11-25T18:28:39.699Z,20.89
2018-11-25T18:31:05.712Z,20.90
2018-11-25T18:33:31.712Z,20.88
2018-11-25T18:35:57.700Z,20.86
2018-11-25T18:38:23.660Z,20.85
2018-11-25T18:40:49.613Z,20.84
2018-11-25T18:43:15.643Z,20.85
2018-11-25T18:45:41.621Z,20.85
2018-11-25T18:48:07.587Z,20.84
2018-11-25T18:50:33.556Z,20.85
2018-11-25T18:52:59.622Z,20.85
2018-11-25T18:55:25.607Z,20.85
2018-11-25T18:57:51.574Z,20.84
2018-11-25T19:00:17.563Z,20.85
2018-11-25T19:02:43.526Z,20.87
2018-11-25T19:05:09.509Z,20.86
2018-11-25T19:07:35.475Z,20.85
2018-11-25T19:10:01.491Z,20.89
2018-11-25T19:12:27.508Z,20.89
2018-11-25T19:14:53.742Z,20.91
2018-11-25T19:17:19.738Z,20.91
2018-11-25T19:19:45.704Z,20.93
2018-11-25T19:22:11.708Z,20.92
2018-11-25T19:24:37.672Z,20.93
2018-11-25T19:27:03.654Z,20.88
2018-11-25T19:29:29.637Z,20.86
2018-11-25T19:31:55.848Z,20.86
2018-11-25T19:34:21.862Z,20.88
2018-11-25T19:36:47.835Z,20.87
2018-11-25T19:39:13.805Z,20.87
2018-11-25T19:41:39.760Z,20.91
2018-11-25T19:44:05.748Z,20.89
2018-11-25T19:46:31.786Z,20.88
2018-11-25T19:48:57.844Z,20.86
2018-11-25T19:51:23.849Z,20.87
2018-11-25T19:53:49.893Z,20.88
2018-11-25T19:56:15.919Z,20.91
2018-11-25T19:58:42.104Z,20.91
2018-11-25T20:01:08.212Z,20.94
2018-11-25T20:03:34.158Z,20.94
2018-11-25T20:06:00.220Z,20.94
2018-11-25T20:08:26.210Z,20.93
2018-11-25T20:10:52.203Z,20.95
2018-11-25T20:13:18.179Z,20.93
2018-11-25T20:15:44.213Z,20.92
2018-11-25T20:18:10.277Z,20.92
2018-11-25T20:20:36.253Z,20.90
2018-11-25T20:23:02.226Z,20.89
2018-11-25T20:25:28.252Z,20.89
2018-11-25T20:27:54.225Z,20.87
2018-11-25T20:30:20.207Z,20.85
2018-11-25T20:32:46.295Z,20.86
2018-11-25T20:35:12.285Z,20.86
2018-11-25T20:37:38.274Z,20.84
2018-11-25T20:40:04.318Z,20.87
2018-11-25T20:42:30.287Z,20.88
2018-11-25T20:44:56.238Z,20.90
2018-11-25T20:47:22.175Z,20.89
2018-11-25T20:49:48.154Z,20.91
2018-11-25T20:52:14.157Z,20.92
2018-11-25T20:54:40.121Z,20.91
2018-11-25T20:57:06.821Z,20.91
2018-11-25T20:59:32.791Z,20.88
2018-11-25T21:01:58.810Z,20.88
2018-11-25T21:04:24.778Z,20.88
2018-11-25T21:06:50.749Z,20.86
2018-11-25T21:09:16.780Z,20.86
2018-11-25T21:11:42.730Z,20.84
2018-11-25T21:14:08.700Z,20.85
2018-11-25T21:16:34.654Z,20.84
2018-11-25T21:19:00.624Z,20.84
2018-11-25T21:21:26.855Z,20.85
2018-11-25T21:23:52.837Z,20.84
2018-11-25T21:26:18.830Z,20.85
2018-11-25T21:28:44.776Z,20.85
2018-11-25T21:31:10.828Z,20.83
2018-11-25T21:33:36.792Z,20.85
2018-11-25T21:36:02.771Z,20.87
2018-11-25T21:38:28.740Z,20.88
2018-11-25T21:40:54.725Z,20.88
2018-11-25T21:43:20.852Z,20.88
2018-11-25T21:45:46.929Z,20.89
2018-11-25T21:48:12.927Z,20.87
2018-11-25T21:50:38.954Z,20.88
2018-11-25T21:53:04.907Z,20.87
2018-11-25T21:55:30.885Z,20.87
2018-11-25T21:57:56.840Z,20.87
2018-11-25T22:00:22.802Z,20.87
2018-11-25T22:02:48.764Z,20.87
2018-11-25T22:05:14.731Z,20.88
2018-11-25T22:07:40.757Z,20.87
2018-11-25T22:10:06.796Z,20.85
2018-11-25T22:12:32.833Z,20.87
2018-11-25T22:14:58.852Z,20.86
2018-11-25T22:17:24.833Z,20.86
2018-11-25T22:19:50.792Z,20.89
2018-11-25T22:22:16.732Z,20.87
2018-11-25T22:24:42.749Z,20.89
2018-11-25T22:27:09.234Z,20.88
2018-11-25T22:29:35.200Z,20.90
2018-11-25T22:32:01.248Z,20.89
2018-11-25T22:34:27.258Z,20.89
2018-11-25T22:36:53.226Z,20.88
2018-11-25T22:39:19.157Z,20.89
2018-11-25T22:41:45.196Z,20.86
2018-11-25T22:44:11.161Z,20.84
2018-11-25T22:46:37.153Z,20.85
2018-11-25T22:49:03.110Z,20.83
2018-11-25T22:51:29.074Z,20.83
2018-11-25T22:53:55.024Z,20.82
2018-11-25T22:56:20.993Z,20.82
2018-11-25T22:58:46.952Z,20.80
2018-11-25T23:01:12.916Z,20.81
2018-11-25T23:03:38.902Z,20.81
2018-11-25T23:06:04.832Z,20.81
2018-11-25T23:08:30.786Z,20.84
2018-11-25T23:10:56.737Z,20.84
2018-11-25T23:13:22.728Z,20.86
2018-11-25T23:15:48.770Z,20.85
2018-11-25T23:18:14.744Z,20.86
2018-11-25T23:20:40.704Z,20.87
2018-11-25T23:23:06.656Z,20.84
2018-11-25T23:25:32.619Z,20.85
2018-11-25T23:27:58.564Z,20.85
2018-11-25T23:30:24.525Z,20.83
2018-11-25T23:32:50.504Z,20.83
2018-11-25T23:35:16.473Z,20.81
2018-11-25T23:37:42.426Z,20.79
2018-11-25T23:40:08.371Z,20.78
2018-11-25T23:42:34.335Z,20.76
2018-11-25T23:45:00.304Z,20.75
2018-11-25T23:47:26.689Z,20.78
2018-11-25T23:49:52.740Z,20.74
2018-11-25T23:52:19.609Z,20.76
2018-11-25T23:54:45.575Z,20.78
2018-11-25T23:57:11.549Z,20.78
2018-11-25T23:59:37.499Z,20.80
